Time;durP1;ratioP1;P1;durP2;ratioP2;P2;SDS_P1;SDS_P2;PMS_P1;PMS_P2;Temp;Humidity;BMP_temperature;BMP_pressure;BME280_temperature;BME280_humidity;BME280_pressure;Samples;Min_cycle;Max_cycle;Signal;HPM_P1;HPM_P2
2024/03/24 00:00:43;;;;;;;4.50;1.92;;;;;;;;;;5020939;28;20045;-75
2024/03/24 00:03:11;;;;;;;3.47;1.70;;;;;;;;;;5021997;28;20056;-74
2024/03/24 00:05:41;;;;;;;4.30;1.67;;;;;;;;;;5021995;28;20504;-75
2024/03/24 00:08:13;;;;;;;3.65;1.63;;;;;;;;;;5005137;28;20061;-75
2024/03/24 00:10:42;;;;;;;3.80;1.70;;;;;;;;;;5022136;28;20416;-75
2024/03/24 00:13:13;;;;;;;5.32;1.60;;;;;;;;;;5021779;28;20750;-74
2024/03/24 00:15:41;;;;;;;6.20;1.52;;;;;;;;;;5021580;28;20041;-74
2024/03/24 00:18:09;;;;;;;4.40;1.90;;;;;;;;;;5021471;28;20045;-74
2024/03/24 00:20:38;;;;;;;8.27;1.40;;;;;;;;;;5021840;28;20049;-73
2024/03/24 00:23:10;;;;;;;4.43;1.67;;;;;;;;;;5021706;28;20056;-76
2024/03/24 00:25:39;;;;;;;4.25;1.58;;;;;;;;;;5021102;28;20049;-75
2024/03/24 00:28:07;;;;;;;1.80;1.30;;;;;;;;;;5021676;28;20459;-75
2024/03/24 00:30:36;;;;;;;11.90;2.05;;;;;;;;;;5005013;28;20053;-75
2024/03/24 00:33:05;;;;;;;4.45;1.60;;;;;;;;;;5005400;28;20062;-75
2024/03/24 00:35:36;;;;;;;6.28;1.83;;;;;;;;;;5006892;28;20049;-74
2024/03/24 00:38:06;;;;;;;4.95;1.85;;;;;;;;;;5004113;28;20053;-74
2024/03/24 00:40:34;;;;;;;2.95;1.50;;;;;;;;;;5020541;28;20058;-74
2024/03/24 00:43:03;;;;;;;2.55;1.58;;;;;;;;;;5021384;28;20041;-75
2024/03/24 00:45:31;;;;;;;3.40;1.95;;;;;;;;;;5020618;28;20049;-74
2024/03/24 00:48:01;;;;;;;4.78;1.60;;;;;;;;;;5020174;28;20056;-74
2024/03/24 00:50:29;;;;;;;4.70;1.55;;;;;;;;;;5020924;28;20049;-74
2024/03/24 00:52:58;;;;;;;2.78;1.58;;;;;;;;;;5021515;28;20523;-74
2024/03/24 00:55:26;;;;;;;2.25;1.52;;;;;;;;;;5022758;28;20064;-74
2024/03/24 00:57:54;;;;;;;3.85;1.75;;;;;;;;;;5022338;28;20416;-74
2024/03/24 01:00:24;;;;;;;1.98;1.73;;;;;;;;;;5022163;28;20052;-74
2024/03/24 01:02:53;;;;;;;4.75;1.63;;;;;;;;;;5020518;28;20068;-74
2024/03/24 01:05:22;;;;;;;3.78;1.98;;;;;;;;;;5020983;28;20053;-73
2024/03/24 01:07:51;;;;;;;3.40;1.42;;;;;;;;;;5021089;28;20041;-74
2024/03/24 01:10:20;;;;;;;3.65;1.90;;;;;;;;;;5020879;28;20041;-74
2024/03/24 01:12:49;;;;;;;2.72;1.63;;;;;;;;;;5020640;28;20049;-74
2024/03/24 01:15:17;;;;;;;;;;;;;;;;;;5020799;28;20048;-74
2024/03/24 01:17:46;;;;;;;2.30;1.40;;;;;;;;;;5019595;28;20387;-75
2024/03/24 01:20:15;;;;;;;5.60;2.25;;;;;;;;;;5004295;28;20065;-75
2024/03/24 01:22:46;;;;;;;4.65;1.90;;;;;;;;;;5020498;28;20060;-75
2024/03/24 01:25:15;;;;;;;2.17;1.95;;;;;;;;;;5019699;28;20057;-75
2024/03/24 01:27:44;;;;;;;2.38;1.50;;;;;;;;;;5020566;28;20053;-75
2024/03/24 01:30:13;;;;;;;3.72;1.77;;;;;;;;;;5019986;28;20053;-75
2024/03/24 01:32:43;;;;;;;4.18;1.63;;;;;;;;;;5019803;28;20067;-75
2024/03/24 01:35:11;;;;;;;2.88;2.05;;;;;;;;;;5020622;28;20046;-77
2024/03/24 01:37:43;;;;;;;6.32;1.75;;;;;;;;;;5020392;28;20049;-75
2024/03/24 01:40:12;;;;;;;1.75;1.55;;;;;;;;;;5020085;28;20047;-75
2024/03/24 01:42:40;;;;;;;3.47;1.45;;;;;;;;;;5020400;28;20037;-76
2024/03/24 01:45:09;;;;;;;2.30;1.60;;;;;;;;;;5020458;28;20115;-75
2024/03/24 01:47:38;;;;;;;2.00;1.48;;;;;;;;;;5020651;28;20056;-75
2024/03/24 01:50:08;;;;;;;3.67;1.88;;;;;;;;;;5020467;28;20420;-75
2024/03/24 01:52:37;;;;;;;5.40;1.75;;;;;;;;;;5020521;28;20046;-75
2024/03/24 01:55:05;;;;;;;3.80;1.73;;;;;;;;;;5020381;28;20065;-79
2024/03/24 01:57:34;;;;;;;4.47;2.10;;;;;;;;;;5020656;28;20066;-75
2024/03/24 02:00:03;;;;;;;2.97;1.58;;;;;;;;;;5020408;28;20041;-76
2024/03/24 02:02:40;;;;;;;3.63;2.15;;;;;;;;;;5022994;28;20504;-75
2024/03/24 02:05:09;;;;;;;5.50;2.00;;;;;;;;;;5019444;28;20045;-76
2024/03/24 02:07:37;;;;;;;4.00;1.83;;;;;;;;;;5020682;28;20129;-75
2024/03/24 02:10:07;;;;;;;3.38;2.00;;;;;;;;;;5020044;28;20504;-75
2024/03/24 02:12:35;;;;;;;2.85;1.73;;;;;;;;;;5003536;28;20061;-75
2024/03/24 02:15:04;;;;;;;3.75;1.92;;;;;;;;;;5020866;28;20520;-75
2024/03/24 02:17:32;;;;;;;3.10;1.70;;;;;;;;;;5023326;28;20419;-75
2024/03/24 02:20:01;;;;;;;3.20;1.48;;;;;;;;;;5023858;28;20053;-75
2024/03/24 02:22:35;;;;;;;2.50;1.80;;;;;;;;;;5023852;28;20052;-75
2024/03/24 02:25:05;;;;;;;4.40;1.77;;;;;;;;;;5023666;28;20416;-75
2024/03/24 02:27:34;;;;;;;2.30;1.30;;;;;;;;;;5023115;28;20500;-75
2024/03/24 02:30:03;;;;;;;3.15;1.63;;;;;;;;;;5023462;28;20042;-75
2024/03/24 02:32:32;;;;;;;6.10;1.90;;;;;;;;;;5022675;28;20112;-75
2024/03/24 02:35:01;;;;;;;2.25;1.42;;;;;;;;;;5007104;28;20042;-76
2024/03/24 02:37:29;;;;;;;2.67;1.50;;;;;;;;;;5022873;28;20054;-75
2024/03/24 02:39:57;;;;;;;1.77;1.33;;;;;;;;;;5024295;28;20072;-74
2024/03/24 02:42:25;;;;;;;6.25;1.45;;;;;;;;;;5006977;28;20053;-75
2024/03/24 02:44:54;;;;;;;2.42;1.52;;;;;;;;;;5023039;28;20513;-74
2024/03/24 02:47:22;;;;;;;4.47;1.45;;;;;;;;;;5022568;28;20547;-74
2024/03/24 02:49:51;;;;;;;3.58;1.25;;;;;;;;;;5023175;28;20053;-74
2024/03/24 02:52:19;;;;;;;5.38;1.23;;;;;;;;;;5022896;28;20523;-74
2024/03/24 02:54:48;;;;;;;1.85;1.42;;;;;;;;;;5022809;28;20056;-74
2024/03/24 02:57:17;;;;;;;3.90;1.38;;;;;;;;;;5022862;28;20060;-74
2024/03/24 02:59:45;;;;;;;2.35;1.25;;;;;;;;;;5022611;28;20460;-74
2024/03/24 03:02:13;;;;;;;2.13;1.10;;;;;;;;;;5022638;28;20048;-75
2024/03/24 03:04:42;;;;;;;1.73;1.15;;;;;;;;;;5022810;28;20504;-74
2024/03/24 03:07:11;;;;;;;2.00;1.10;;;;;;;;;;5022729;28;20050;-74
2024/03/24 03:09:39;;;;;;;2.00;1.30;;;;;;;;;;5023068;28;20041;-75
2024/03/24 03:12:14;;;;;;;3.58;1.15;;;;;;;;;;5022647;28;20052;-74
2024/03/24 03:14:43;;;;;;;2.10;1.33;;;;;;;;;;5023512;28;20045;-74
2024/03/24 03:17:12;;;;;;;5.32;1.20;;;;;;;;;;5022908;28;20060;-74
2024/03/24 03:19:43;;;;;;;2.17;1.10;;;;;;;;;;5024769;28;20049;-75
2024/03/24 03:22:11;;;;;;;1.83;1.27;;;;;;;;;;5023216;28;20057;-74
2024/03/24 03:24:40;;;;;;;1.73;1.17;;;;;;;;;;5008044;28;20057;-73
2024/03/24 03:27:11;;;;;;;4.10;1.00;;;;;;;;;;5022440;28;20060;-74
2024/03/24 03:29:41;;;;;;;2.22;0.95;;;;;;;;;;5022940;28;20050;-74
2024/03/24 03:32:09;;;;;;;2.47;1.13;;;;;;;;;;5007367;28;20064;-74
2024/03/24 03:34:38;;;;;;;4.28;1.02;;;;;;;;;;5022946;28;20052;-74
2024/03/24 03:37:07;;;;;;;2.13;1.20;;;;;;;;;;5021947;28;20045;-74
2024/03/24 03:39:36;;;;;;;3.75;1.20;;;;;;;;;;5022331;28;20060;-74
2024/03/24 03:42:05;;;;;;;1.30;0.90;;;;;;;;;;5022470;28;20056;-74
2024/03/24 03:44:33;;;;;;;0.88;0.80;;;;;;;;;;5005689;28;20507;-74
2024/03/24 03:47:01;;;;;;;3.67;0.85;;;;;;;;;;5021961;28;20060;-74
2024/03/24 03:49:30;;;;;;;1.30;0.73;;;;;;;;;;5021975;28;20052;-74
2024/03/24 03:51:58;;;;;;;2.28;0.85;;;;;;;;;;5021808;28;20087;-74
2024/03/24 03:54:28;;;;;;;2.53;0.93;;;;;;;;;;5021179;28;20555;-73
2024/03/24 03:56:56;;;;;;;2.60;0.60;;;;;;;;;;5022260;28;20045;-74
2024/03/24 03:59:24;;;;;;;2.42;0.85;;;;;;;;;;5022096;28;20064;-74
2024/03/24 04:01:52;;;;;;;0.70;0.70;;;;;;;;;;5022469;28;20152;-74
2024/03/24 04:04:21;;;;;;;2.00;0.73;;;;;;;;;;5021858;28;20048;-74
2024/03/24 04:06:50;;;;;;;5.32;0.90;;;;;;;;;;5021623;28;20049;-74
2024/03/24 04:09:19;;;;;;;0.80;0.60;;;;;;;;;;5022423;28;20041;-74
2024/03/24 04:11:47;;;;;;;2.65;0.75;;;;;;;;;;5021123;28;20551;-74
2024/03/24 04:14:19;;;;;;;;;;;;;;;;;;5021744;28;20045;-74
2024/03/24 04:16:48;;;;;;;0.85;0.40;;;;;;;;;;5021060;28;20289;-74
2024/03/24 04:19:16;;;;;;;1.95;0.50;;;;;;;;;;5021115;28;20065;-74
2024/03/24 04:21:45;;;;;;;;;;;;;;;;;;5021823;28;20049;-74
2024/03/24 04:24:17;;;;;;;2.13;0.50;;;;;;;;;;5021497;28;19925;-74
2024/03/24 04:26:45;;;;;;;3.22;0.50;;;;;;;;;;5021389;28;21284;-74
2024/03/24 04:29:16;;;;;;;1.02;0.57;;;;;;;;;;5006049;28;20041;-74
2024/03/24 04:31:45;;;;;;;4.95;0.70;;;;;;;;;;5021229;28;20424;-74
2024/03/24 04:34:14;;;;;;;1.38;0.40;;;;;;;;;;5020838;28;20424;-74
2024/03/24 04:36:43;;;;;;;0.77;0.50;;;;;;;;;;5020748;28;20412;-74
2024/03/24 04:39:12;;;;;;;2.08;0.55;;;;;;;;;;5020768;28;20053;-74
2024/03/24 04:41:41;;;;;;;3.47;0.60;;;;;;;;;;5021308;28;20050;-74
2024/03/24 04:44:09;;;;;;;3.20;0.52;;;;;;;;;;5004858;28;20049;-74
2024/03/24 04:46:38;;;;;;;3.10;0.50;;;;;;;;;;5020557;28;20053;-74
2024/03/24 04:49:09;;;;;;;1.05;0.52;;;;;;;;;;5020434;28;20049;-74
2024/03/24 04:51:39;;;;;;;3.08;0.57;;;;;;;;;;5021427;28;20061;-73
2024/03/24 04:54:07;;;;;;;1.35;0.70;;;;;;;;;;5021215;28;20057;-73
2024/03/24 04:56:36;;;;;;;3.13;0.68;;;;;;;;;;5021236;28;20075;-75
2024/03/24 04:59:04;;;;;;;1.13;0.50;;;;;;;;;;5004369;28;20053;-74
2024/03/24 05:01:33;;;;;;;2.67;0.52;;;;;;;;;;5020393;28;20044;-75
2024/03/24 05:04:04;;;;;;;0.80;0.43;;;;;;;;;;5020111;28;20060;-75
2024/03/24 05:06:33;;;;;;;0.75;0.30;;;;;;;;;;5020581;28;20046;-75
2024/03/24 05:09:01;;;;;;;1.27;0.50;;;;;;;;;;5004141;28;20052;-75
2024/03/24 05:11:29;;;;;;;0.85;0.52;;;;;;;;;;5020720;28;20054;-75
2024/03/24 05:13:58;;;;;;;3.92;0.80;;;;;;;;;;5020823;28;20527;-75
2024/03/24 05:16:31;;;;;;;0.40;0.40;;;;;;;;;;5020424;28;20420;-74
2024/03/24 05:19:06;;;;;;;1.40;0.60;;;;;;;;;;5020343;28;20052;-75
2024/03/24 05:21:36;;;;;;;0.70;0.52;;;;;;;;;;5020026;28;20041;-74
2024/03/24 05:24:06;;;;;;;1.23;0.60;;;;;;;;;;5021177;28;20056;-75
2024/03/24 05:26:34;;;;;;;2.60;0.80;;;;;;;;;;5020098;28;20052;-76
2024/03/24 05:29:05;;;;;;;2.08;0.50;;;;;;;;;;5020678;28;20049;-74
2024/03/24 05:31:34;;;;;;;0.40;0.40;;;;;;;;;;5020846;28;20049;-75
2024/03/24 05:34:02;;;;;;;2.45;0.63;;;;;;;;;;5020723;28;20045;-74
2024/03/24 05:36:31;;;;;;;0.98;0.50;;;;;;;;;;5020661;28;20053;-75
2024/03/24 05:38:59;;;;;;;1.73;0.35;;;;;;;;;;5020253;28;20116;-75
2024/03/24 05:41:28;;;;;;;0.88;0.47;;;;;;;;;;5020531;28;20800;-75
2024/03/24 05:43:56;;;;;;;1.27;0.60;;;;;;;;;;5021055;28;20045;-75
2024/03/24 05:46:25;;;;;;;1.48;0.60;;;;;;;;;;5020352;28;20049;-75
2024/03/24 05:48:54;;;;;;;1.58;0.43;;;;;;;;;;5020630;28;20053;-74
2024/03/24 05:51:22;;;;;;;2.90;0.45;;;;;;;;;;5024093;28;20056;-74
2024/03/24 05:53:51;;;;;;;3.33;0.60;;;;;;;;;;5023740;28;20042;-74
2024/03/24 05:56:20;;;;;;;0.60;0.50;;;;;;;;;;5024003;28;20041;-75
2024/03/24 05:58:50;;;;;;;3.22;0.60;;;;;;;;;;5023811;28;20056;-74
2024/03/24 06:01:18;;;;;;;0.52;0.47;;;;;;;;;;5024173;28;20049;-74
2024/03/24 06:03:46;;;;;;;0.43;0.43;;;;;;;;;;5024088;28;20037;-75
2024/03/24 06:06:15;;;;;;;0.50;0.38;;;;;;;;;;5023576;28;20424;-74
2024/03/24 06:08:43;;;;;;;1.20;0.57;;;;;;;;;;5024441;28;20049;-74
2024/03/24 06:11:12;;;;;;;0.30;0.30;;;;;;;;;;5027913;28;20045;-74
2024/03/24 06:13:42;;;;;;;2.03;0.32;;;;;;;;;;5026729;28;20092;-75
2024/03/24 06:16:13;;;;;;;1.35;0.40;;;;;;;;;;5027326;28;20049;-74
2024/03/24 06:18:42;;;;;;;1.38;0.60;;;;;;;;;;5023927;28;20045;-75
2024/03/24 06:21:11;;;;;;;1.90;0.45;;;;;;;;;;5023934;28;20037;-74
2024/03/24 06:23:39;;;;;;;0.82;0.55;;;;;;;;;;5023677;28;20440;-75
2024/03/24 06:26:08;;;;;;;0.80;0.60;;;;;;;;;;5023484;28;20041;-74
2024/03/24 06:28:37;;;;;;;;;;;;;;;;;;5025237;28;20041;-74
2024/03/24 06:31:05;;;;;;;2.35;0.52;;;;;;;;;;5023819;28;19932;-75
2024/03/24 06:33:34;;;;;;;2.15;0.50;;;;;;;;;;5006753;28;20752;-74
2024/03/24 06:36:02;;;;;;;0.68;0.50;;;;;;;;;;5007189;28;20080;-74
2024/03/24 06:38:31;;;;;;;1.08;0.43;;;;;;;;;;5023531;28;20049;-74
2024/03/24 06:41:00;;;;;;;2.38;0.60;;;;;;;;;;5023680;28;20049;-74
2024/03/24 06:43:36;;;;;;;0.60;0.50;;;;;;;;;;5023929;28;20373;-75
2024/03/24 06:46:06;;;;;;;0.73;0.43;;;;;;;;;;5022533;28;20583;-73
2024/03/24 06:48:34;;;;;;;0.88;0.73;;;;;;;;;;5023240;28;20424;-74
2024/03/24 06:51:04;;;;;;;3.20;0.82;;;;;;;;;;5023409;28;20129;-74
2024/03/24 06:53:33;;;;;;;4.57;0.63;;;;;;;;;;5025543;28;20057;-73
2024/03/24 06:56:01;;;;;;;1.83;0.55;;;;;;;;;;5026766;28;20075;-74
2024/03/24 06:58:29;;;;;;;1.00;0.70;;;;;;;;;;5007496;28;20045;-74
2024/03/24 07:00:57;;;;;;;3.67;0.60;;;;;;;;;;5022364;28;20041;-74
2024/03/24 07:03:25;;;;;;;0.95;0.70;;;;;;;;;;5023114;28;20381;-73
2024/03/24 07:05:54;;;;;;;1.88;0.73;;;;;;;;;;5023323;28;20686;-74
2024/03/24 07:08:23;;;;;;;3.78;0.73;;;;;;;;;;5023783;28;20424;-74
2024/03/24 07:10:52;;;;;;;2.10;0.60;;;;;;;;;;5007702;28;20068;-75
2024/03/24 07:13:20;;;;;;;2.42;0.80;;;;;;;;;;5023647;28;20049;-74
2024/03/24 07:15:49;;;;;;;1.23;0.70;;;;;;;;;;5006024;28;20610;-74
2024/03/24 07:18:17;;;;;;;1.30;0.77;;;;;;;;;;5022601;28;20076;-75
2024/03/24 07:20:46;;;;;;;1.73;0.80;;;;;;;;;;5023351;28;20048;-74
2024/03/24 07:23:15;;;;;;;2.53;0.90;;;;;;;;;;5022744;28;20072;-74
2024/03/24 07:25:46;;;;;;;2.85;0.80;;;;;;;;;;5006718;28;20976;-74
2024/03/24 07:28:15;;;;;;;2.80;0.90;;;;;;;;;;5022985;28;20050;-74
2024/03/24 07:30:43;;;;;;;1.92;0.90;;;;;;;;;;5005963;28;20045;-74
2024/03/24 07:33:12;;;;;;;1.13;0.82;;;;;;;;;;5022516;28;20575;-74
2024/03/24 07:35:40;;;;;;;1.13;0.73;;;;;;;;;;5007090;28;20057;-74
2024/03/24 07:38:13;;;;;;;1.02;0.85;;;;;;;;;;5006402;28;20420;-74
2024/03/24 07:40:43;;;;;;;1.65;0.80;;;;;;;;;;5006511;28;20042;-74
2024/03/24 07:43:12;;;;;;;2.55;0.95;;;;;;;;;;5022826;28;20529;-74
2024/03/24 07:45:40;;;;;;;1.40;0.63;;;;;;;;;;5022144;28;20060;-75
2024/03/24 07:48:10;;;;;;;1.88;0.65;;;;;;;;;;5022307;28;20045;-74
2024/03/24 07:50:40;;;;;;;1.63;0.70;;;;;;;;;;5021789;28;20049;-74
2024/03/24 07:53:10;;;;;;;3.42;0.70;;;;;;;;;;5021644;28;20054;-74
2024/03/24 07:55:41;;;;;;;3.30;0.70;;;;;;;;;;5022410;28;20057;-74
2024/03/24 07:58:10;;;;;;;0.70;0.60;;;;;;;;;;5021853;28;20041;-74
2024/03/24 08:00:39;;;;;;;2.72;0.70;;;;;;;;;;5022002;28;20054;-75
2024/03/24 08:03:08;;;;;;;1.48;0.77;;;;;;;;;;5005628;28;20057;-74
2024/03/24 08:05:36;;;;;;;1.00;0.60;;;;;;;;;;5004986;28;20080;-74
2024/03/24 08:08:06;;;;;;;1.33;0.70;;;;;;;;;;5020733;28;20049;-74
2024/03/24 08:10:35;;;;;;;2.83;0.60;;;;;;;;;;5021133;28;20478;-74
2024/03/24 08:13:04;;;;;;;1.30;0.80;;;;;;;;;;5021494;28;20523;-74
2024/03/24 08:15:32;;;;;;;0.65;0.57;;;;;;;;;;5021722;28;20053;-74
2024/03/24 08:18:00;;;;;;;1.95;0.95;;;;;;;;;;5021542;28;20053;-74
2024/03/24 08:20:29;;;;;;;0.73;0.50;;;;;;;;;;5021273;28;20038;-74
2024/03/24 08:22:57;;;;;;;2.80;0.80;;;;;;;;;;5005657;28;20064;-74
2024/03/24 08:25:26;;;;;;;3.33;0.75;;;;;;;;;;5021777;28;20076;-74
2024/03/24 08:27:55;;;;;;;1.55;0.73;;;;;;;;;;5005521;28;20054;-74
2024/03/24 08:30:23;;;;;;;1.13;0.70;;;;;;;;;;5022163;28;20049;-74
2024/03/24 08:32:52;;;;;;;0.70;0.60;;;;;;;;;;5005744;28;20056;-74
2024/03/24 08:35:20;;;;;;;2.70;0.70;;;;;;;;;;5021817;28;20056;-74
2024/03/24 08:37:49;;;;;;;1.02;0.57;;;;;;;;;;5004942;28;20077;-73
2024/03/24 08:40:18;;;;;;;2.53;0.73;;;;;;;;;;5022312;28;20049;-74
2024/03/24 08:42:47;;;;;;;2.55;0.75;;;;;;;;;;5005751;28;20050;-74
2024/03/24 08:45:17;;;;;;;2.67;0.75;;;;;;;;;;5021039;28;20046;-74
2024/03/24 08:47:46;;;;;;;1.45;0.80;;;;;;;;;;5021019;28;20060;-74
2024/03/24 08:50:15;;;;;;;0.90;0.70;;;;;;;;;;5021081;28;20045;-74
2024/03/24 08:52:43;;;;;;;5.68;1.05;;;;;;;;;;5004519;28;20428;-74
2024/03/24 08:55:14;;;;;;;5.07;0.90;;;;;;;;;;5021045;28;20148;-74
2024/03/24 08:57:42;;;;;;;1.60;0.73;;;;;;;;;;5020967;28;20045;-74
2024/03/24 09:00:11;;;;;;;2.55;0.85;;;;;;;;;;5020470;28;20045;-74
2024/03/24 09:02:40;;;;;;;1.17;0.68;;;;;;;;;;5020911;28;20064;-74
2024/03/24 09:05:09;;;;;;;1.55;0.70;;;;;;;;;;5021028;28;20420;-74
2024/03/24 09:07:38;;;;;;;2.25;0.70;;;;;;;;;;5020620;28;20512;-74
2024/03/24 09:10:06;;;;;;;3.33;1.00;;;;;;;;;;5020671;28;20413;-74
2024/03/24 09:12:36;;;;;;;3.38;0.70;;;;;;;;;;5020461;28;20053;-74
2024/03/24 09:15:05;;;;;;;4.57;0.70;;;;;;;;;;5020807;28;20054;-74
2024/03/24 09:17:33;;;;;;;2.85;0.70;;;;;;;;;;5020806;28;20050;-74
2024/03/24 09:20:02;;;;;;;1.73;0.75;;;;;;;;;;5004891;28;20057;-74
2024/03/24 09:22:31;;;;;;;4.65;0.90;;;;;;;;;;5021867;28;20049;-74
2024/03/24 09:24:59;;;;;;;0.55;0.52;;;;;;;;;;5006309;28;20431;-74
2024/03/24 09:27:28;;;;;;;4.00;0.55;;;;;;;;;;5024123;28;20049;-74
2024/03/24 09:29:56;;;;;;;4.45;0.70;;;;;;;;;;5024476;28;20048;-74
2024/03/24 09:32:24;;;;;;;4.07;0.90;;;;;;;;;;5024615;28;20045;-74
2024/03/24 09:34:53;;;;;;;0.90;0.70;;;;;;;;;;5023669;28;20432;-74
2024/03/24 09:37:24;;;;;;;5.90;1.13;;;;;;;;;;5024258;28;20049;-74
2024/03/24 09:39:52;;;;;;;1.60;0.80;;;;;;;;;;5024401;28;20056;-74
2024/03/24 09:42:22;;;;;;;4.43;0.82;;;;;;;;;;5023779;28;20420;-74
2024/03/24 09:44:51;;;;;;;3.05;0.60;;;;;;;;;;5023952;28;20041;-74
2024/03/24 09:47:21;;;;;;;8.65;0.70;;;;;;;;;;5024147;28;20504;-74
2024/03/24 09:49:51;;;;;;;0.93;0.60;;;;;;;;;;5024682;28;20404;-74
2024/03/24 09:52:22;;;;;;;2.53;0.55;;;;;;;;;;5007719;28;20049;-75
2024/03/24 09:54:51;;;;;;;1.77;0.60;;;;;;;;;;5024867;28;20060;-74
2024/03/24 09:57:19;;;;;;;5.47;0.90;;;;;;;;;;5007900;28;20045;-77
2024/03/24 09:59:49;;;;;;;0.65;0.50;;;;;;;;;;5023874;28;20049;-74
2024/03/24 10:02:17;;;;;;;;;;;;;;;;;;5024490;28;20520;-74
2024/03/24 10:04:46;;;;;;;1.42;0.75;;;;;;;;;;5007690;28;19954;-75
2024/03/24 10:07:15;;;;;;;0.70;0.60;;;;;;;;;;5024319;28;20049;-74
2024/03/24 10:09:44;;;;;;;2.10;0.65;;;;;;;;;;5023825;28;20049;-75
2024/03/24 10:12:13;;;;;;;0.80;0.60;;;;;;;;;;5007770;28;20424;-75
2024/03/24 10:14:44;;;;;;;1.10;0.55;;;;;;;;;;5023963;28;20041;-74
2024/03/24 10:17:16;;;;;;;0.60;0.50;;;;;;;;;;5023501;28;20061;-74
2024/03/24 10:19:46;;;;;;;2.22;0.70;;;;;;;;;;5023607;28;20056;-74
2024/03/24 10:22:15;;;;;;;0.70;0.60;;;;;;;;;;5023549;28;20053;-74
2024/03/24 10:24:44;;;;;;;3.55;0.80;;;;;;;;;;5023388;28;20389;-74
2024/03/24 10:27:13;;;;;;;1.38;0.50;;;;;;;;;;5006965;28;20084;-76
2024/03/24 10:29:42;;;;;;;4.10;1.08;;;;;;;;;;5023591;28;20056;-75
2024/03/24 10:32:11;;;;;;;1.65;0.55;;;;;;;;;;5023438;28;20049;-75
2024/03/24 10:34:40;;;;;;;1.08;0.70;;;;;;;;;;5024022;28;20044;-74
2024/03/24 10:37:12;;;;;;;2.05;0.73;;;;;;;;;;5022437;28;20056;-75
2024/03/24 10:39:42;;;;;;;3.53;0.70;;;;;;;;;;5024604;28;20046;-74
2024/03/24 10:42:16;;;;;;;2.00;0.68;;;;;;;;;;5023441;28;20068;-75
2024/03/24 10:44:44;;;;;;;1.20;0.60;;;;;;;;;;5024458;28;20041;-74
2024/03/24 10:47:13;;;;;;;0.63;0.63;;;;;;;;;;5023827;28;20052;-75
2024/03/24 10:49:49;;;;;;;0.82;0.50;;;;;;;;;;5023793;28;20052;-74
2024/03/24 10:52:20;;;;;;;0.45;0.20;;;;;;;;;;5023335;28;20500;-74
2024/03/24 10:54:51;;;;;;;1.63;0.50;;;;;;;;;;5008016;28;20057;-75
2024/03/24 10:57:19;;;;;;;8.98;0.63;;;;;;;;;;5023641;28;20044;-74
2024/03/24 10:59:50;;;;;;;1.95;0.68;;;;;;;;;;5023979;28;20041;-73
2024/03/24 11:02:20;;;;;;;2.85;0.45;;;;;;;;;;5023342;28;20042;-74
2024/03/24 11:04:53;;;;;;;0.50;0.38;;;;;;;;;;5023231;28;20060;-74
2024/03/24 11:07:23;;;;;;;2.58;1.60;;;;;;;;;;5023107;28;20546;-73
2024/03/24 11:09:52;;;;;;;3.20;1.33;;;;;;;;;;5007210;28;20053;-73
2024/03/24 11:12:22;;;;;;;3.13;0.90;;;;;;;;;;5022783;28;20041;-74
2024/03/24 11:14:51;;;;;;;1.90;0.60;;;;;;;;;;5022179;28;20045;-74
2024/03/24 11:17:21;;;;;;;2.58;0.38;;;;;;;;;;5022756;28;20045;-75
2024/03/24 11:19:50;;;;;;;2.85;0.70;;;;;;;;;;5022191;28;20053;-74
2024/03/24 11:22:43;;;;;;;1.60;0.63;;;;;;;;;;5022303;28;21097;-74
2024/03/24 11:25:12;;;;;;;1.20;0.22;;;;;;;;;;5022624;28;20050;-74
2024/03/24 11:27:43;;;;;;;1.42;0.40;;;;;;;;;;5022223;28;20401;-74
2024/03/24 11:30:16;;;;;;;0.70;0.30;;;;;;;;;;5006449;28;20539;-74
2024/03/24 11:33:03;;;;;;;0.52;0.25;;;;;;;;;;5022913;28;20408;-74
2024/03/24 11:35:32;;;;;;;2.65;0.50;;;;;;;;;;5022520;28;20049;-74
2024/03/24 11:38:05;;;;;;;5.82;0.60;;;;;;;;;;5022187;28;20052;-74
2024/03/24 11:40:37;;;;;;;2.65;0.47;;;;;;;;;;5022333;28;21056;-74
2024/03/24 11:43:05;;;;;;;1.85;0.47;;;;;;;;;;5006078;28;20064;-74
2024/03/24 11:45:35;;;;;;;0.65;0.28;;;;;;;;;;5021742;28;20048;-74
2024/03/24 11:48:17;;;;;;;0.55;0.32;;;;;;;;;;5021837;28;20042;-74
2024/03/24 11:50:47;;;;;;;0.47;0.38;;;;;;;;;;5005139;28;20053;-74
2024/03/24 11:53:18;;;;;;;0.88;0.57;;;;;;;;;;5005523;28;20068;-76
2024/03/24 11:55:49;;;;;;;3.28;0.50;;;;;;;;;;5020911;28;20057;-74
2024/03/24 11:58:21;;;;;;;0.52;0.30;;;;;;;;;;5021620;28;20057;-75
2024/03/24 12:00:50;;;;;;;1.33;0.45;;;;;;;;;;5021894;28;20038;-74
2024/03/24 12:03:18;;;;;;;1.65;0.47;;;;;;;;;;5021284;28;20053;-74
2024/03/24 12:05:52;;;;;;;1.08;0.30;;;;;;;;;;5022278;28;20053;-74
2024/03/24 12:08:25;;;;;;;1.92;0.40;;;;;;;;;;5022389;28;20049;-76
2024/03/24 12:10:53;;;;;;;2.97;0.35;;;;;;;;;;5022424;28;20049;-74
2024/03/24 12:13:22;;;;;;;1.85;0.50;;;;;;;;;;5022213;28;20518;-74
2024/03/24 12:15:50;;;;;;;;;;;;;;;;;;5022719;28;20045;-75
2024/03/24 12:18:21;;;;;;;1.50;0.40;;;;;;;;;;5021855;28;19975;-74
2024/03/24 12:20:51;;;;;;;2.08;0.30;;;;;;;;;;5022164;28;20094;-75
2024/03/24 12:23:25;;;;;;;5.13;0.80;;;;;;;;;;5005607;28;20420;-75
2024/03/24 12:25:54;;;;;;;3.95;0.30;;;;;;;;;;5034762;28;20399;-75
2024/03/24 12:28:22;;;;;;;1.55;0.52;;;;;;;;;;5041390;28;20052;-75
2024/03/24 12:30:55;;;;;;;1.90;0.30;;;;;;;;;;5041420;28;20404;-75
2024/03/24 12:33:26;;;;;;;1.02;0.35;;;;;;;;;;5040714;28;21007;-74
2024/03/24 12:35:57;;;;;;;0.68;0.32;;;;;;;;;;5041997;28;20045;-74
2024/03/24 12:38:25;;;;;;;0.90;0.45;;;;;;;;;;5041727;28;20624;-74
2024/03/24 12:40:55;;;;;;;2.97;0.75;;;;;;;;;;5041209;28;20586;-75
2024/03/24 12:43:30;;;;;;;1.27;0.40;;;;;;;;;;5025123;28;20124;-75
2024/03/24 12:46:00;;;;;;;1.88;1.30;;;;;;;;;;5041418;28;20057;-75
2024/03/24 12:48:29;;;;;;;1.65;0.50;;;;;;;;;;5041141;28;20048;-75
2024/03/24 12:50:58;;;;;;;2.85;0.50;;;;;;;;;;5041454;28;20542;-76
2024/03/24 12:53:51;;;;;;;1.17;0.35;;;;;;;;;;5024847;28;20045;-75
2024/03/24 12:56:20;;;;;;;4.10;0.45;;;;;;;;;;5024981;28;20052;-75
2024/03/24 12:58:49;;;;;;;0.88;0.30;;;;;;;;;;5040861;28;20060;-75
2024/03/24 13:01:19;;;;;;;1.83;0.45;;;;;;;;;;5040347;28;20147;-74
2024/03/24 13:03:47;;;;;;;1.30;0.20;;;;;;;;;;5040439;28;20053;-75
2024/03/24 13:06:17;;;;;;;;;;;;;;;;;;5025803;28;20041;-74
2024/03/24 13:08:48;;;;;;;0.73;0.20;;;;;;;;;;5040673;28;19924;-75
2024/03/24 13:11:20;;;;;;;1.63;0.50;;;;;;;;;;5040379;28;20523;-78
2024/03/24 13:13:48;;;;;;;1.52;0.28;;;;;;;;;;5040897;28;20052;-75
2024/03/24 13:16:30;;;;;;;1.90;0.15;;;;;;;;;;5040177;28;20049;-76
2024/03/24 13:19:15;;;;;;;2.05;0.70;;;;;;;;;;5041062;28;20080;-75
2024/03/24 13:22:01;;;;;;;1.52;0.43;;;;;;;;;;5040116;28;20041;-75
2024/03/24 13:24:43;;;;;;;2.47;0.30;;;;;;;;;;5040235;28;20049;-76
2024/03/24 13:27:19;;;;;;;3.63;0.40;;;;;;;;;;5041233;28;20052;-76
2024/03/24 13:29:49;;;;;;;5.50;0.60;;;;;;;;;;5040193;28;21017;-78
2024/03/24 13:32:17;;;;;;;0.70;0.28;;;;;;;;;;5040190;28;20059;-78
2024/03/24 13:34:47;;;;;;;0.75;0.40;;;;;;;;;;5040269;28;20049;-75
2024/03/24 13:37:26;;;;;;;4.97;0.25;;;;;;;;;;5040313;28;20041;-76
2024/03/24 13:39:55;;;;;;;0.90;0.40;;;;;;;;;;5040702;28;20399;-73
2024/03/24 13:42:27;;;;;;;4.38;3.95;;;;;;;;;;5041071;28;20389;-75
2024/03/24 13:45:46;;;;;;;2.05;0.40;;;;;;;;;;5040214;28;20543;-77
2024/03/24 13:48:17;;;;;;;1.15;0.30;;;;;;;;;;5031916;28;20064;-75
2024/03/24 13:50:46;;;;;;;2.13;0.40;;;;;;;;;;5040718;28;20045;-75
2024/03/24 13:53:15;;;;;;;0.57;0.40;;;;;;;;;;5039789;28;20056;-79
2024/03/24 13:55:44;;;;;;;1.20;0.40;;;;;;;;;;5039720;28;20443;-75
2024/03/24 13:58:13;;;;;;;0.30;0.28;;;;;;;;;;5039930;28;20397;-76
2024/03/24 14:00:42;;;;;;;1.10;0.40;;;;;;;;;;5040336;28;20790;-74
2024/03/24 14:03:10;;;;;;;2.47;0.50;;;;;;;;;;5040149;28;20412;-75
2024/03/24 14:05:38;;;;;;;4.13;0.57;;;;;;;;;;5040016;28;20060;-77
2024/03/24 14:08:07;;;;;;;0.85;0.40;;;;;;;;;;5040131;28;20504;-75
2024/03/24 14:10:36;;;;;;;1.50;0.57;;;;;;;;;;5041078;28;20048;-76
2024/03/24 14:13:31;;;;;;;1.25;0.50;;;;;;;;;;5027842;28;20052;-73
2024/03/24 14:16:08;;;;;;;2.00;0.30;;;;;;;;;;5046993;28;20552;-74
2024/03/24 14:19:11;;;;;;;1.95;0.47;;;;;;;;;;5044167;28;20520;-75
2024/03/24 14:21:58;;;;;;;0.95;0.38;;;;;;;;;;5038776;28;20057;-76
2024/03/24 14:24:51;;;;;;;2.78;0.43;;;;;;;;;;5043725;28;20048;-79
2024/03/24 14:27:20;;;;;;;0.90;0.22;;;;;;;;;;5043119;28;20820;-74
2024/03/24 14:29:48;;;;;;;0.82;0.30;;;;;;;;;;5043124;28;20056;-77
2024/03/24 14:32:17;;;;;;;2.78;0.50;;;;;;;;;;5043604;28;20745;-75
2024/03/24 14:34:47;;;;;;;1.52;0.43;;;;;;;;;;5043714;28;20056;-75
2024/03/24 14:37:31;;;;;;;2.72;0.45;;;;;;;;;;5027070;28;20076;-76
2024/03/24 14:40:00;;;;;;;1.35;0.30;;;;;;;;;;5042852;28;20051;-75
2024/03/24 14:42:46;;;;;;;1.50;0.50;;;;;;;;;;5043408;28;20049;-78
2024/03/24 14:45:50;;;;;;;2.83;0.43;;;;;;;;;;5043279;28;20060;-76
2024/03/24 14:48:35;;;;;;;0.32;0.28;;;;;;;;;;5043184;28;20048;-76
2024/03/24 14:51:04;;;;;;;3.05;0.55;;;;;;;;;;5043369;28;20045;-78
2024/03/24 14:53:32;;;;;;;3.33;0.50;;;;;;;;;;5043169;28;20049;-76
2024/03/24 14:56:02;;;;;;;2.00;0.60;;;;;;;;;;5042822;28;20507;-76
2024/03/24 14:58:30;;;;;;;1.27;0.43;;;;;;;;;;5042725;28;20206;-77
2024/03/24 15:00:58;;;;;;;1.83;0.75;;;;;;;;;;5042535;28;20502;-75
2024/03/24 15:03:27;;;;;;;1.25;0.52;;;;;;;;;;5043310;28;20526;-74